createdAt,value
2023-02-15T00:00:43.017Z,1018.81
2023-02-15T00:01:43.043Z,1018.82
2023-02-15T00:02:43.019Z,1018.79
2023-02-15T00:03:43.020Z,1018.76
2023-02-15T00:04:43.232Z,1018.76
2023-02-15T00:05:43.027Z,1018.74
2023-02-15T00:06:43.012Z,1018.72
2023-02-15T00:07:43.020Z,1018.73
2023-02-15T00:08:43.010Z,1018.69
2023-02-15T00:09:43.008Z,1018.68
2023-02-15T00:10:43.027Z,1018.7
2023-02-15T00:11:43.257Z,1018.7
2023-02-15T00:12:43.020Z,1018.71
2023-02-15T00:13:43.016Z,1018.71
2023-02-15T00:14:43.023Z,1018.72
2023-02-15T00:15:43.014Z,1018.72
2023-02-15T00:16:43.050Z,1018.72
2023-02-15T00:17:43.010Z,1018.69
2023-02-15T00:18:43.132Z,1018.73
2023-02-15T00:19:43.084Z,1018.71
2023-02-15T00:20:43.009Z,1018.74
2023-02-15T00:21:43.010Z,1018.68
2023-02-15T00:22:43.002Z,1018.66
2023-02-15T00:23:43.007Z,1018.68
2023-02-15T00:24:43.021Z,1018.63
2023-02-15T00:25:43.004Z,1018.63
2023-02-15T00:26:43.034Z,1018.63
2023-02-15T00:27:43.006Z,1018.6
2023-02-15T00:28:43.013Z,1018.62
2023-02-15T00:29:43.097Z,1018.62
2023-02-15T00:30:43.085Z,1018.52
2023-02-15T00:31:43.066Z,1018.58
2023-02-15T00:32:43.009Z,1018.52
2023-02-15T00:33:43.008Z,1018.52
2023-02-15T00:34:43.029Z,1018.46
2023-02-15T00:35:43.014Z,1018.46
2023-02-15T00:36:43.014Z,1018.5
2023-02-15T00:37:43.015Z,1018.48
2023-02-15T00:38:43.126Z,1018.44
2023-02-15T00:39:43.011Z,1018.43
2023-02-15T00:40:43.012Z,1018.42
2023-02-15T00:41:43.011Z,1018.38
2023-02-15T00:42:43.003Z,1018.39
2023-02-15T00:43:43.012Z,1018.38
2023-02-15T00:44:43.010Z,1018.4
2023-02-15T00:45:43.028Z,1018.39
2023-02-15T00:46:43.102Z,1018.39
2023-02-15T00:47:43.020Z,1018.35
2023-02-15T00:48:43.096Z,1018.33
2023-02-15T00:49:43.223Z,1018.32
2023-02-15T00:50:43.457Z,1018.33
2023-02-15T00:51:43.204Z,1018.35
2023-02-15T00:52:43.034Z,1018.42
2023-02-15T00:53:43.263Z,1018.43
2023-02-15T00:54:43.022Z,1018.38
2023-02-15T00:55:43.288Z,1018.41
2023-02-15T00:56:43.139Z,1018.42
2023-02-15T00:57:43.375Z,1018.38
2023-02-15T00:58:43.131Z,1018.41
2023-02-15T00:59:43.023Z,1018.38
2023-02-15T01:00:43.017Z,1018.42
2023-02-15T01:01:43.004Z,1018.45
2023-02-15T01:02:43.246Z,1018.42
2023-02-15T01:03:43.064Z,1018.36
2023-02-15T01:04:43.062Z,1018.38
2023-02-15T01:05:43.008Z,1018.4
2023-02-15T01:06:43.010Z,1018.41
2023-02-15T01:07:43.017Z,1018.45
2023-02-15T01:08:43.023Z,1018.44
2023-02-15T01:09:43.017Z,1018.45
2023-02-15T01:10:43.009Z,1018.42
2023-02-15T01:11:43.109Z,1018.44
2023-02-15T01:12:43.505Z,1018.4
2023-02-15T01:13:43.355Z,1018.42
2023-02-15T01:14:43.633Z,1018.42
2023-02-15T01:15:46.000Z,1018.38
2023-02-15T01:16:43.187Z,1018.38
2023-02-15T01:17:42.469Z,1018.38
2023-02-15T01:18:42.726Z,1018.35
2023-02-15T01:19:43.035Z,1018.33
2023-02-15T01:20:43.306Z,1018.32
2023-02-15T01:21:42.812Z,1018.3
2023-02-15T01:22:43.017Z,1018.29
2023-02-15T01:23:43.361Z,1018.29
2023-02-15T01:24:43.561Z,1018.28
2023-02-15T01:25:43.299Z,1018.27
2023-02-15T01:26:43.565Z,1018.23
2023-02-15T01:27:43.758Z,1018.29
2023-02-15T01:28:44.142Z,1018.3
2023-02-15T01:29:43.366Z,1018.27
2023-02-15T01:30:43.706Z,1018.25
2023-02-15T01:31:43.945Z,1018.24
2023-02-15T01:32:43.310Z,1018.29
2023-02-15T01:33:43.563Z,1018.28
2023-02-15T01:34:43.017Z,1018.28
2023-02-15T01:35:43.282Z,1018.26
2023-02-15T01:36:43.143Z,1018.25
2023-02-15T01:37:43.014Z,1018.27
2023-02-15T01:38:43.085Z,1018.27
2023-02-15T01:39:43.024Z,1018.31
2023-02-15T01:40:43.053Z,1018.28
2023-02-15T01:41:43.030Z,1018.31
2023-02-15T01:42:43.020Z,1018.33
2023-02-15T01:43:43.050Z,1018.28
2023-02-15T01:44:43.034Z,1018.27
2023-02-15T01:45:43.207Z,1018.27
2023-02-15T01:46:43.022Z,1018.28
2023-02-15T01:47:43.032Z,1018.31
2023-02-15T01:48:43.049Z,1018.3
2023-02-15T01:49:43.007Z,1018.25
2023-02-15T01:50:43.020Z,1018.25
2023-02-15T01:51:43.013Z,1018.22
2023-02-15T01:52:43.020Z,1018.26
2023-02-15T01:53:43.028Z,1018.22
2023-02-15T01:54:43.072Z,1018.24
2023-02-15T01:55:43.014Z,1018.22
2023-02-15T01:56:43.007Z,1018.21
2023-02-15T01:57:43.098Z,1018.23
2023-02-15T01:58:43.195Z,1018.21
2023-02-15T01:59:43.018Z,1018.18
2023-02-15T02:00:43.016Z,1018.17
2023-02-15T02:01:43.290Z,1018.15
2023-02-15T02:02:43.111Z,1018.15
2023-02-15T02:03:43.036Z,1018.12
2023-02-15T02:04:43.126Z,1018.13
2023-02-15T02:05:43.288Z,1018.08
2023-02-15T02:06:43.030Z,1018.11
2023-02-15T02:07:43.019Z,1018.09
2023-02-15T02:08:43.121Z,1018.12
2023-02-15T02:09:43.005Z,1018.09
2023-02-15T02:10:43.021Z,1018.04
2023-02-15T02:11:43.063Z,1018.07
2023-02-15T02:12:43.024Z,1018.05
2023-02-15T02:13:43.002Z,1018.03
2023-02-15T02:14:43.008Z,1018.09
2023-02-15T02:15:43.048Z,1018.08
2023-02-15T02:16:43.039Z,1018.05
2023-02-15T02:17:43.029Z,1018.02
2023-02-15T02:18:43.009Z,1017.99
2023-02-15T02:19:43.047Z,1017.99
2023-02-15T02:20:43.020Z,1017.97
2023-02-15T02:21:43.036Z,1017.94
2023-02-15T02:22:43.017Z,1017.94
2023-02-15T02:23:43.021Z,1017.91
2023-02-15T02:24:43.417Z,1017.88
2023-02-15T02:25:43.018Z,1017.92
2023-02-15T02:26:43.549Z,1017.92
2023-02-15T02:27:43.069Z,1017.9
2023-02-15T02:28:43.009Z,1017.89
2023-02-15T02:29:43.009Z,1017.88
2023-02-15T02:30:43.029Z,1017.87
2023-02-15T02:31:43.183Z,1017.84
2023-02-15T02:32:43.014Z,1017.84
2023-02-15T02:33:43.028Z,1017.81
2023-02-15T02:34:43.011Z,1017.79
2023-02-15T02:35:43.028Z,1017.75
2023-02-15T02:36:43.011Z,1017.75
2023-02-15T02:37:43.010Z,1017.76
2023-02-15T02:38:43.088Z,1017.76
2023-02-15T02:39:43.086Z,1017.78
2023-02-15T02:40:43.010Z,1017.73
2023-02-15T02:41:43.022Z,1017.75
2023-02-15T02:42:43.024Z,1017.75
2023-02-15T02:43:43.031Z,1017.71
2023-02-15T02:44:43.023Z,1017.69
2023-02-15T02:45:43.011Z,1017.67
2023-02-15T02:46:43.024Z,1017.7
2023-02-15T02:47:43.008Z,1017.69
2023-02-15T02:48:43.030Z,1017.66
2023-02-15T02:49:43.009Z,1017.63
2023-02-15T02:50:43.094Z,1017.58
2023-02-15T02:51:43.014Z,1017.56
2023-02-15T02:52:43.056Z,1017.57
2023-02-15T02:53:43.038Z,1017.55
2023-02-15T02:54:43.007Z,1017.54
2023-02-15T02:55:43.029Z,1017.56
2023-02-15T02:56:43.068Z,1017.52
2023-02-15T02:57:43.006Z,1017.56
2023-02-15T02:58:43.019Z,1017.57
2023-02-15T02:59:43.024Z,1017.57
2023-02-15T03:00:43.008Z,1017.57
2023-02-15T03:01:43.082Z,1017.53
2023-02-15T03:02:43.155Z,1017.54
2023-02-15T03:03:43.025Z,1017.54
2023-02-15T03:04:43.050Z,1017.58
2023-02-15T03:05:43.037Z,1017.52
2023-02-15T03:06:43.112Z,1017.54
2023-02-15T03:07:43.018Z,1017.53
2023-02-15T03:08:43.017Z,1017.49
2023-02-15T03:09:43.026Z,1017.48
2023-02-15T03:10:43.016Z,1017.5
2023-02-15T03:11:43.025Z,1017.47
2023-02-15T03:12:43.043Z,1017.44
2023-02-15T03:13:43.012Z,1017.46
2023-02-15T03:14:43.248Z,1017.46
2023-02-15T03:15:43.054Z,1017.43
2023-02-15T03:16:43.022Z,1017.43
2023-02-15T03:17:43.323Z,1017.42
2023-02-15T03:18:43.017Z,1017.37
2023-02-15T03:19:43.009Z,1017.34
2023-02-15T03:20:43.145Z,1017.35
2023-02-15T03:21:43.247Z,1017.36
2023-02-15T03:22:43.016Z,1017.38
2023-02-15T03:23:43.013Z,1017.39
2023-02-15T03:24:43.242Z,1017.37
2023-02-15T03:25:43.286Z,1017.33
2023-02-15T03:26:43.040Z,1017.3
2023-02-15T03:27:43.085Z,1017.39
2023-02-15T03:28:43.291Z,1017.4
2023-02-15T03:29:43.013Z,1017.42
2023-02-15T03:30:43.062Z,1017.44
2023-02-15T03:31:43.079Z,1017.43
2023-02-15T03:32:43.030Z,1017.45
2023-02-15T03:33:43.025Z,1017.45
2023-02-15T03:34:43.035Z,1017.41
2023-02-15T03:35:43.103Z,1017.39
2023-02-15T03:36:43.023Z,1017.44
2023-02-15T03:37:43.022Z,1017.38
2023-02-15T03:38:43.019Z,1017.39
2023-02-15T03:39:43.017Z,1017.39
2023-02-15T03:40:43.014Z,1017.34
2023-02-15T03:41:43.020Z,1017.33
2023-02-15T03:42:43.016Z,1017.36
2023-02-15T03:43:43.021Z,1017.34
2023-02-15T03:44:43.029Z,1017.39
2023-02-15T03:45:43.023Z,1017.41
2023-02-15T03:46:43.098Z,1017.42
2023-02-15T03:47:43.128Z,1017.42
2023-02-15T03:48:43.027Z,1017.42
2023-02-15T03:49:43.082Z,1017.43
2023-02-15T03:50:43.012Z,1017.4
2023-02-15T03:51:43.029Z,1017.38
2023-02-15T03:52:43.013Z,1017.37
2023-02-15T03:53:43.012Z,1017.34
2023-02-15T03:54:43.021Z,1017.33
2023-02-15T03:55:43.013Z,1017.31
2023-02-15T03:56:43.035Z,1017.35
2023-02-15T03:57:43.024Z,1017.35
2023-02-15T03:58:43.018Z,1017.33
2023-02-15T03:59:43.106Z,1017.33
2023-02-15T04:00:43.191Z,1017.32
2023-02-15T04:01:43.020Z,1017.31
2023-02-15T04:02:43.082Z,1017.3
2023-02-15T04:03:43.021Z,1017.31
2023-02-15T04:04:43.015Z,1017.33
2023-02-15T04:05:43.018Z,1017.33
2023-02-15T04:06:43.007Z,1017.3
2023-02-15T04:07:43.293Z,1017.29
2023-02-15T04:08:43.028Z,1017.32
2023-02-15T04:09:43.036Z,1017.27
2023-02-15T04:10:43.036Z,1017.3
2023-02-15T04:11:43.022Z,1017.29
2023-02-15T04:12:43.035Z,1017.29
2023-02-15T04:13:43.044Z,1017.31
2023-02-15T04:14:43.030Z,1017.22
2023-02-15T04:15:43.032Z,1017.3
2023-02-15T04:16:43.115Z,1017.3
2023-02-15T04:17:43.365Z,1017.24
2023-02-15T04:18:43.264Z,1017.25
2023-02-15T04:19:43.278Z,1017.27
2023-02-15T04:20:43.231Z,1017.3
2023-02-15T04:21:43.017Z,1017.24
2023-02-15T04:22:43.024Z,1017.23
2023-02-15T04:23:43.044Z,1017.19
2023-02-15T04:24:43.284Z,1017.23
2023-02-15T04:25:43.031Z,1017.21
2023-02-15T04:26:43.307Z,1017.18
2023-02-15T04:27:43.120Z,1017.18
2023-02-15T04:28:43.385Z,1017.19
2023-02-15T04:29:43.354Z,1017.18
2023-02-15T04:30:43.098Z,1017.15
2023-02-15T04:31:43.385Z,1017.15
2023-02-15T04:32:43.488Z,1017.14
2023-02-15T04:33:43.233Z,1017.12
2023-02-15T04:34:43.092Z,1017.13
2023-02-15T04:35:43.321Z,1017.16
2023-02-15T04:36:43.563Z,1017.14
2023-02-15T04:37:43.956Z,1017.17
2023-02-15T04:38:43.011Z,1017.16
2023-02-15T04:39:43.008Z,1017.16
2023-02-15T04:40:43.004Z,1017.14
2023-02-15T04:41:43.008Z,1017.12
2023-02-15T04:42:43.012Z,1017.1
2023-02-15T04:43:43.007Z,1017.08
2023-02-15T04:44:43.020Z,1017.06
2023-02-15T04:45:43.334Z,1017.05
2023-02-15T04:46:43.545Z,1017.05
2023-02-15T04:47:42.483Z,1017.07
2023-02-15T04:48:42.764Z,1017.07
2023-02-15T04:49:43.039Z,1017.09
2023-02-15T04:50:43.322Z,1017.06
2023-02-15T04:51:42.624Z,1017.06
2023-02-15T04:52:42.868Z,1017.07
2023-02-15T04:53:43.148Z,1017.07
2023-02-15T04:54:43.422Z,1017.01
2023-02-15T04:55:42.899Z,1017.02
2023-02-15T04:56:43.993Z,1017.05
2023-02-15T04:57:43.475Z,1016.98
2023-02-15T04:58:43.158Z,1017
2023-02-15T04:59:43.428Z,1016.97
2023-02-15T05:00:43.170Z,1016.94
2023-02-15T05:01:43.025Z,1016.93
2023-02-15T05:02:43.087Z,1016.96
2023-02-15T05:03:43.052Z,1016.87
2023-02-15T05:04:43.219Z,1016.91
2023-02-15T05:05:43.018Z,1016.91
2023-02-15T05:06:43.195Z,1016.86
2023-02-15T05:07:43.057Z,1016.87
2023-02-15T05:08:43.334Z,1016.88
2023-02-15T05:09:43.033Z,1016.91
2023-02-15T05:10:43.275Z,1016.92
2023-02-15T05:11:43.090Z,1016.92
2023-02-15T05:12:43.291Z,1016.87
2023-02-15T05:13:43.030Z,1016.9
2023-02-15T05:14:43.014Z,1016.92
2023-02-15T05:15:45.516Z,1016.96
2023-02-15T05:16:43.038Z,1016.95
2023-02-15T05:17:43.005Z,1016.95
2023-02-15T05:18:43.010Z,1016.92
2023-02-15T05:19:43.010Z,1016.96
2023-02-15T05:20:43.006Z,1016.95
2023-02-15T05:21:43.071Z,1016.95
2023-02-15T05:22:43.011Z,1016.91
2023-02-15T05:23:43.022Z,1016.91
2023-02-15T05:24:43.018Z,1016.88
2023-02-15T05:25:43.007Z,1016.89
2023-02-15T05:26:43.058Z,1016.85
2023-02-15T05:27:43.036Z,1016.84
2023-02-15T05:28:43.017Z,1016.85
2023-02-15T05:29:43.199Z,1016.86
2023-02-15T05:30:43.158Z,1016.86
2023-02-15T05:31:43.399Z,1016.88
2023-02-15T05:32:43.195Z,1016.86
2023-02-15T05:33:43.004Z,1016.86
2023-02-15T05:34:43.013Z,1016.88
2023-02-15T05:35:43.240Z,1016.88
2023-02-15T05:36:43.036Z,1016.89
2023-02-15T05:37:43.014Z,1016.87
2023-02-15T05:38:43.080Z,1016.87
2023-02-15T05:39:43.024Z,1016.87
2023-02-15T05:40:43.011Z,1016.87
2023-02-15T05:41:43.094Z,1016.87
2023-02-15T05:42:43.285Z,1016.84
2023-02-15T05:43:43.093Z,1016.83
2023-02-15T05:44:43.173Z,1016.82
2023-02-15T05:45:43.042Z,1016.8
2023-02-15T05:46:43.015Z,1016.8
2023-02-15T05:47:43.039Z,1016.81
2023-02-15T05:48:43.013Z,1016.83
2023-02-15T05:49:43.352Z,1016.78
2023-02-15T05:50:43.024Z,1016.78
2023-02-15T05:51:43.029Z,1016.8
2023-02-15T05:52:43.052Z,1016.76
2023-02-15T05:53:43.097Z,1016.77
2023-02-15T05:54:43.035Z,1016.79
2023-02-15T05:55:43.009Z,1016.79
2023-02-15T05:56:43.042Z,1016.83
2023-02-15T05:57:43.035Z,1016.9
2023-02-15T05:58:43.022Z,1016.87
2023-02-15T05:59:43.148Z,1016.86
2023-02-15T06:00:43.011Z,1016.83
2023-02-15T06:01:43.016Z,1016.77
2023-02-15T06:02:43.097Z,1016.77
2023-02-15T06:03:43.244Z,1016.77
2023-02-15T06:04:43.195Z,1016.77
2023-02-15T06:05:43.017Z,1016.79
2023-02-15T06:06:43.103Z,1016.83
2023-02-15T06:07:43.049Z,1016.86
2023-02-15T06:08:43.026Z,1016.83
2023-02-15T06:09:43.124Z,1016.89
2023-02-15T06:10:43.027Z,1016.83
2023-02-15T06:11:43.116Z,1016.86
2023-02-15T06:12:43.066Z,1016.86
2023-02-15T06:13:43.019Z,1016.82
2023-02-15T06:14:43.230Z,1016.81
2023-02-15T06:15:43.060Z,1016.82
2023-02-15T06:16:43.017Z,1016.75
2023-02-15T06:17:43.048Z,1016.77
2023-02-15T06:18:43.021Z,1016.72
2023-02-15T06:19:43.022Z,1016.74
2023-02-15T06:20:43.029Z,1016.73
2023-02-15T06:21:43.026Z,1016.75
2023-02-15T06:22:43.094Z,1016.71
2023-02-15T06:23:43.024Z,1016.68
2023-02-15T06:24:43.022Z,1016.66
2023-02-15T06:25:43.132Z,1016.67
2023-02-15T06:26:43.043Z,1016.68
2023-02-15T06:27:43.029Z,1016.65
2023-02-15T06:28:43.011Z,1016.71
2023-02-15T06:29:43.014Z,1016.7
2023-02-15T06:30:43.152Z,1016.7
2023-02-15T06:31:43.168Z,1016.71
2023-02-15T06:32:43.008Z,1016.72
2023-02-15T06:33:43.017Z,1016.73
2023-02-15T06:34:43.015Z,1016.73
2023-02-15T06:35:43.103Z,1016.73
2023-02-15T06:36:43.133Z,1016.73
2023-02-15T06:37:43.026Z,1016.74
2023-02-15T06:38:43.171Z,1016.76
2023-02-15T06:39:43.067Z,1016.76
2023-02-15T06:40:43.118Z,1016.75
2023-02-15T06:41:43.307Z,1016.81
2023-02-15T06:42:43.265Z,1016.78
2023-02-15T06:43:44.165Z,1016.75
2023-02-15T06:44:43.059Z,1016.72
2023-02-15T06:45:43.097Z,1016.79
2023-02-15T06:46:43.445Z,1016.78
2023-02-15T06:47:43.260Z,1016.76
2023-02-15T06:48:43.188Z,1016.73
2023-02-15T06:49:43.443Z,1016.76
2023-02-15T06:50:43.478Z,1016.74
2023-02-15T06:51:43.769Z,1016.73
2023-02-15T06:52:43.558Z,1016.81
2023-02-15T06:53:43.839Z,1016.79
2023-02-15T06:54:43.371Z,1016.78
2023-02-15T06:55:43.675Z,1016.76
2023-02-15T06:56:43.392Z,1016.75
2023-02-15T06:57:43.156Z,1016.77
2023-02-15T06:58:43.433Z,1016.75
2023-02-15T06:59:43.020Z,1016.77
2023-02-15T07:00:43.246Z,1016.77
2023-02-15T07:01:43.067Z,1016.79
2023-02-15T07:02:43.283Z,1016.77
2023-02-15T07:03:43.033Z,1016.73
2023-02-15T07:04:43.055Z,1016.78
2023-02-15T07:05:43.019Z,1016.72
2023-02-15T07:06:43.070Z,1016.78
2023-02-15T07:07:43.014Z,1016.8
2023-02-15T07:08:43.049Z,1016.8
2023-02-15T07:09:43.134Z,1016.8
2023-02-15T07:10:43.015Z,1016.76
2023-02-15T07:11:43.018Z,1016.76
2023-02-15T07:12:43.004Z,1016.76
2023-02-15T07:13:43.013Z,1016.73
2023-02-15T07:14:43.032Z,1016.77
2023-02-15T07:15:43.030Z,1016.74
2023-02-15T07:16:43.007Z,1016.76
2023-02-15T07:17:43.019Z,1016.76
2023-02-15T07:18:43.121Z,1016.77
2023-02-15T07:19:43.010Z,1016.77
2023-02-15T07:20:43.015Z,1016.76
2023-02-15T07:21:43.070Z,1016.78
2023-02-15T07:22:43.019Z,1016.77
2023-02-15T07:23:43.004Z,1016.76
2023-02-15T07:24:43.014Z,1016.77
2023-02-15T07:25:43.010Z,1016.77
2023-02-15T07:26:43.020Z,1016.78
2023-02-15T07:27:43.018Z,1016.74
2023-02-15T07:28:43.004Z,1016.71
2023-02-15T07:29:43.027Z,1016.69
2023-02-15T07:30:43.026Z,1016.69
2023-02-15T07:31:43.012Z,1016.68
2023-02-15T07:32:43.536Z,1016.71
2023-02-15T07:33:43.489Z,1016.69
2023-02-15T07:34:43.016Z,1016.68
2023-02-15T07:35:43.011Z,1016.71
2023-02-15T07:36:43.236Z,1016.66
2023-02-15T07:37:43.136Z,1016.58
2023-02-15T07:38:43.021Z,1016.58
2023-02-15T07:39:43.017Z,1016.58
2023-02-15T07:40:43.045Z,1016.54
2023-02-15T07:41:43.015Z,1016.57
2023-02-15T07:42:43.014Z,1016.52
2023-02-15T07:43:43.028Z,1016.5
2023-02-15T07:44:43.012Z,1016.47
2023-02-15T07:45:43.014Z,1016.49
2023-02-15T07:46:43.095Z,1016.47
2023-02-15T07:47:43.012Z,1016.48
2023-02-15T07:48:43.060Z,1016.48
2023-02-15T07:49:43.022Z,1016.46
2023-02-15T07:50:43.030Z,1016.43
2023-02-15T07:51:43.112Z,1016.41
2023-02-15T07:52:43.020Z,1016.4
2023-02-15T07:53:42.999Z,1016.39
2023-02-15T07:54:43.013Z,1016.41
2023-02-15T07:55:43.010Z,1016.36
2023-02-15T07:56:43.005Z,1016.35
2023-02-15T07:57:43.014Z,1016.36
2023-02-15T07:58:43.012Z,1016.36
2023-02-15T07:59:43.016Z,1016.33
2023-02-15T08:00:43.601Z,1016.38
2023-02-15T08:01:43.015Z,1016.34
2023-02-15T08:02:43.179Z,1016.28
2023-02-15T08:03:43.075Z,1016.29
2023-02-15T08:04:43.206Z,1016.27
2023-02-15T08:05:43.031Z,1016.28
2023-02-15T08:06:43.315Z,1016.28
2023-02-15T08:07:43.020Z,1016.26
2023-02-15T08:08:43.296Z,1016.23
2023-02-15T08:09:43.151Z,1016.23
2023-02-15T08:10:43.378Z,1016.19
2023-02-15T08:11:43.648Z,1016.22
2023-02-15T08:12:43.012Z,1016.21
2023-02-15T08:13:43.017Z,1016.22
2023-02-15T08:14:43.007Z,1016.18
2023-02-15T08:15:43.036Z,1016.16
2023-02-15T08:16:43.062Z,1016.2
2023-02-15T08:17:43.026Z,1016.17
2023-02-15T08:18:43.011Z,1016.14
2023-02-15T08:19:43.018Z,1016.19
2023-02-15T08:20:43.134Z,1016.17
2023-02-15T08:21:43.006Z,1016.17
2023-02-15T08:22:43.013Z,1016.16
2023-02-15T08:23:43.015Z,1016.14
2023-02-15T08:24:43.006Z,1016.15
2023-02-15T08:25:43.013Z,1016.18
2023-02-15T08:26:45.022Z,1016.2
2023-02-15T08:27:43.018Z,1016.11
2023-02-15T08:28:43.168Z,1016.14
2023-02-15T08:29:43.032Z,1016.2
2023-02-15T08:30:43.091Z,1016.16
2023-02-15T08:31:43.576Z,1016.16
2023-02-15T08:32:43.314Z,1016.14
2023-02-15T08:33:42.716Z,1016.14
2023-02-15T08:34:42.961Z,1016.11
2023-02-15T08:35:43.144Z,1016.13
2023-02-15T08:36:42.435Z,1016.13
2023-02-15T08:37:42.702Z,1016.09
2023-02-15T08:38:42.989Z,1016.06
2023-02-15T08:39:43.410Z,1016.04
2023-02-15T08:40:42.678Z,1016.02
2023-02-15T08:41:43.000Z,1016.01
2023-02-15T08:42:43.331Z,1016.01
2023-02-15T08:43:43.545Z,1015.97
2023-02-15T08:44:43.120Z,1015.96
2023-02-15T08:45:43.394Z,1015.96
2023-02-15T08:46:43.099Z,1015.94
2023-02-15T08:47:43.277Z,1015.89
2023-02-15T08:48:43.075Z,1015.93
2023-02-15T08:49:43.062Z,1015.92
2023-02-15T08:50:43.040Z,1015.89
2023-02-15T08:51:43.035Z,1015.83
2023-02-15T08:52:43.043Z,1015.82
2023-02-15T08:53:43.030Z,1015.82
2023-02-15T08:54:43.028Z,1015.8
2023-02-15T08:55:43.015Z,1015.79
2023-02-15T08:56:43.021Z,1015.79
2023-02-15T08:57:43.060Z,1015.77
2023-02-15T08:58:43.029Z,1015.76
2023-02-15T08:59:43.092Z,1015.77
2023-02-15T09:00:43.059Z,1015.75
2023-02-15T09:01:43.043Z,1015.77
2023-02-15T09:02:43.226Z,1015.75
2023-02-15T09:03:43.022Z,1015.72
2023-02-15T09:04:43.031Z,1015.72
2023-02-15T09:05:43.008Z,1015.68
2023-02-15T09:06:43.222Z,1015.68
2023-02-15T09:07:43.052Z,1015.66
2023-02-15T09:08:43.012Z,1015.62
2023-02-15T09:09:43.379Z,1015.63
2023-02-15T09:10:43.048Z,1015.6
2023-02-15T09:11:43.017Z,1015.62
2023-02-15T09:12:43.155Z,1015.58
2023-02-15T09:13:43.289Z,1015.59
2023-02-15T09:14:43.161Z,1015.62
2023-02-15T09:15:43.036Z,1015.62
2023-02-15T09:16:43.371Z,1015.59
2023-02-15T09:17:43.303Z,1015.59
2023-02-15T09:18:43.230Z,1015.58
2023-02-15T09:19:43.078Z,1015.58
2023-02-15T09:20:43.200Z,1015.56
2023-02-15T09:21:43.172Z,1015.55
2023-02-15T09:22:43.026Z,1015.57
2023-02-15T09:23:43.187Z,1015.54
2023-02-15T09:24:43.282Z,1015.56
2023-02-15T09:25:43.541Z,1015.5
2023-02-15T09:26:43.026Z,1015.52
2023-02-15T09:27:43.301Z,1015.47
2023-02-15T09:28:43.098Z,1015.48
2023-02-15T09:29:43.269Z,1015.44
2023-02-15T09:30:43.173Z,1015.43
2023-02-15T09:31:43.403Z,1015.45
2023-02-15T09:32:43.719Z,1015.45
2023-02-15T09:33:43.018Z,1015.46
2023-02-15T09:34:43.038Z,1015.46
2023-02-15T09:35:43.018Z,1015.45
2023-02-15T09:36:43.021Z,1015.46
2023-02-15T09:37:43.017Z,1015.47
2023-02-15T09:38:43.013Z,1015.43
2023-02-15T09:39:43.114Z,1015.44
2023-02-15T09:40:43.028Z,1015.42
2023-02-15T09:41:43.020Z,1015.46
2023-02-15T09:42:43.017Z,1015.47
2023-02-15T09:43:43.041Z,1015.47
2023-02-15T09:44:43.019Z,1015.47
2023-02-15T09:45:43.276Z,1015.46
2023-02-15T09:46:43.011Z,1015.44
2023-02-15T09:47:43.017Z,1015.51
2023-02-15T09:48:43.025Z,1015.48
2023-02-15T09:49:43.014Z,1015.47
2023-02-15T09:50:43.033Z,1015.47
2023-02-15T09:51:43.011Z,1015.46
2023-02-15T09:52:43.012Z,1015.44
2023-02-15T09:53:43.026Z,1015.45
2023-02-15T09:54:43.013Z,1015.44
2023-02-15T09:55:43.074Z,1015.43
2023-02-15T09:56:43.008Z,1015.44
2023-02-15T09:57:43.022Z,1015.41
2023-02-15T09:58:43.069Z,1015.44
2023-02-15T09:59:43.111Z,1015.43
2023-02-15T10:00:43.058Z,1015.39
2023-02-15T10:01:43.062Z,1015.42
2023-02-15T10:02:43.022Z,1015.39
2023-02-15T10:03:43.011Z,1015.34
2023-02-15T10:04:43.074Z,1015.35
2023-02-15T10:05:43.058Z,1015.31
2023-02-15T10:06:43.186Z,1015.3
2023-02-15T10:07:43.021Z,1015.37
2023-02-15T10:08:43.031Z,1015.34
2023-02-15T10:09:43.100Z,1015.32
2023-02-15T10:10:43.027Z,1015.34
2023-02-15T10:11:43.026Z,1015.29
2023-02-15T10:12:43.053Z,1015.29
2023-02-15T10:13:43.053Z,1015.29
2023-02-15T10:14:43.022Z,1015.29
2023-02-15T10:15:43.017Z,1015.23
2023-02-15T10:16:43.053Z,1015.24
2023-02-15T10:17:43.019Z,1015.25
2023-02-15T10:18:43.026Z,1015.2
2023-02-15T10:19:43.028Z,1015.24
2023-02-15T10:20:43.015Z,1015.2
2023-02-15T10:21:43.016Z,1015.22
2023-02-15T10:22:43.043Z,1015.2
2023-02-15T10:23:43.069Z,1015.16
2023-02-15T10:24:49.293Z,1015.17
2023-02-15T10:25:43.067Z,1015.13
2023-02-15T10:26:43.027Z,1015.16
2023-02-15T10:27:43.094Z,1015.13
2023-02-15T10:28:43.018Z,1015.16
2023-02-15T10:29:43.175Z,1015.14
2023-02-15T10:30:43.240Z,1015.17
2023-02-15T10:31:43.344Z,1015.15
2023-02-15T10:32:43.033Z,1015.16
2023-02-15T10:33:43.339Z,1015.19
2023-02-15T10:34:43.044Z,1015.22
2023-02-15T10:35:43.282Z,1015.2
2023-02-15T10:36:43.096Z,1015.17
2023-02-15T10:37:43.289Z,1015.18
2023-02-15T10:38:43.019Z,1015.16
2023-02-15T10:39:43.028Z,1015.19
2023-02-15T10:40:43.027Z,1015.13
2023-02-15T10:41:43.032Z,1015.17
2023-02-15T10:42:43.021Z,1015.15
2023-02-15T10:43:43.072Z,1015.16
2023-02-15T10:44:43.017Z,1015.15
2023-02-15T10:45:43.029Z,1015.13
2023-02-15T10:46:43.037Z,1015.12
2023-02-15T10:47:43.016Z,1015.13
2023-02-15T10:48:43.026Z,1015.1
2023-02-15T10:49:43.011Z,1015.12
2023-02-15T10:50:43.017Z,1015.1
2023-02-15T10:51:43.046Z,1015.07
2023-02-15T10:52:43.019Z,1015.13
2023-02-15T10:53:43.040Z,1015.08
2023-02-15T10:54:43.027Z,1015.05
2023-02-15T10:55:43.023Z,1015.03
2023-02-15T10:56:43.014Z,1015.05
2023-02-15T10:57:43.017Z,1015.06
2023-02-15T10:58:43.029Z,1015.05
2023-02-15T10:59:43.058Z,1015.07
2023-02-15T11:00:43.078Z,1015.05
2023-02-15T11:01:43.081Z,1015
2023-02-15T11:02:43.014Z,1015
2023-02-15T11:03:43.025Z,1015.02
2023-02-15T11:04:43.057Z,1015.04
2023-02-15T11:05:43.024Z,1015.09
2023-02-15T11:06:43.017Z,1015.12
2023-02-15T11:07:43.016Z,1015.08
2023-02-15T11:08:43.085Z,1015.12
2023-02-15T11:09:43.039Z,1015.08
2023-02-15T11:10:43.023Z,1015.15
2023-02-15T11:11:43.024Z,1015.08
2023-02-15T11:12:43.026Z,1015.16
2023-02-15T11:13:43.086Z,1015.12
2023-02-15T11:14:43.014Z,1015.12
2023-02-15T11:15:43.040Z,1015.15
2023-02-15T11:16:43.017Z,1015.15
2023-02-15T11:17:43.012Z,1015.12
2023-02-15T11:18:43.025Z,1015.15
2023-02-15T11:19:43.049Z,1015.12
2023-02-15T11:20:43.028Z,1015.09
2023-02-15T11:21:43.024Z,1015.1
2023-02-15T11:22:43.105Z,1015.08
2023-02-15T11:23:43.038Z,1015.09
2023-02-15T11:24:43.029Z,1015.08
2023-02-15T11:25:43.017Z,1015.04
2023-02-15T11:26:43.027Z,1015
2023-02-15T11:27:43.071Z,1015
2023-02-15T11:28:43.018Z,1014.98
2023-02-15T11:29:43.015Z,1014.98
2023-02-15T11:30:43.018Z,1014.92
2023-02-15T11:31:43.078Z,1014.91
2023-02-15T11:32:43.038Z,1014.9
2023-02-15T11:33:43.109Z,1014.81
2023-02-15T11:34:43.022Z,1014.75
2023-02-15T11:35:43.030Z,1014.76
2023-02-15T11:36:43.404Z,1014.8
2023-02-15T11:37:43.129Z,1014.78
2023-02-15T11:38:43.007Z,1014.75
2023-02-15T11:39:43.116Z,1014.74
2023-02-15T11:40:43.015Z,1014.72
2023-02-15T11:41:43.017Z,1014.73
2023-02-15T11:42:43.006Z,1014.76
2023-02-15T11:43:43.222Z,1014.77
2023-02-15T11:44:43.033Z,1014.75
2023-02-15T11:45:43.023Z,1014.77
2023-02-15T11:46:43.111Z,1014.75
2023-02-15T11:47:43.299Z,1014.75
2023-02-15T11:48:43.019Z,1014.75
2023-02-15T11:49:43.031Z,1014.71
2023-02-15T11:50:43.015Z,1014.7
2023-02-15T11:51:43.008Z,1014.65
2023-02-15T11:52:43.197Z,1014.68
2023-02-15T11:53:43.012Z,1014.67
2023-02-15T11:54:43.003Z,1014.62
2023-02-15T11:55:43.017Z,1014.65
2023-02-15T11:56:43.023Z,1014.59
2023-02-15T11:57:43.011Z,1014.58
2023-02-15T11:58:43.007Z,1014.6
2023-02-15T11:59:43.012Z,1014.6
2023-02-15T12:00:43.019Z,1014.56
2023-02-15T12:01:43.024Z,1014.58
2023-02-15T12:02:43.068Z,1014.56
2023-02-15T12:03:43.068Z,1014.56
2023-02-15T12:04:43.128Z,1014.51
2023-02-15T12:05:43.311Z,1014.52
2023-02-15T12:06:43.641Z,1014.47
2023-02-15T12:07:42.476Z,1014.46